createdAt,value
2023-05-02T00:00:06.643Z,153.40
2023-05-02T00:02:54.863Z,213.20
2023-05-02T00:05:23.256Z,142.90
2023-05-02T00:07:54.380Z,132.60
2023-05-02T00:10:22.194Z,761.60
2023-05-02T00:12:50.012Z,1197.20
2023-05-02T00:15:17.848Z,1181.30
2023-05-02T00:17:45.815Z,575.60
2023-05-02T00:20:13.882Z,154.70
2023-05-02T00:22:41.689Z,133.30
2023-05-02T00:25:10.117Z,149.70
2023-05-02T00:27:37.980Z,105.80
2023-05-02T00:30:06.750Z,95.50
2023-05-02T00:32:34.779Z,89.90
2023-05-02T00:35:02.776Z,79.70
2023-05-02T00:37:30.664Z,58.80
2023-05-02T00:39:59.256Z,62.20
2023-05-02T00:42:29.364Z,58.60
2023-05-02T00:44:57.788Z,53.60
2023-05-02T00:47:25.873Z,52.40
2023-05-02T00:49:53.589Z,53.10
2023-05-02T00:52:21.480Z,47.30
2023-05-02T00:54:49.722Z,35.20
2023-05-02T00:57:17.566Z,80.90
2023-05-02T00:59:45.433Z,84.30
2023-05-02T01:02:53.245Z,78.70
2023-05-02T01:05:45.238Z,45.60
2023-05-02T01:08:56.164Z,40.50
2023-05-02T01:11:36.576Z,35.30
2023-05-02T01:14:06.270Z,39.70
2023-05-02T01:16:37.270Z,41.50
2023-05-02T01:19:06.198Z,48.10
2023-05-02T01:21:34.205Z,39.60
2023-05-02T01:24:20.513Z,31.10
2023-05-02T01:26:58.602Z,35.00
2023-05-02T01:29:27.913Z,36.10
2023-05-02T01:31:56.975Z,36.40
2023-05-02T01:34:26.093Z,37.30
2023-05-02T01:36:54.767Z,42.70
2023-05-02T01:39:24.632Z,35.80
2023-05-02T01:41:54.816Z,37.80
2023-05-02T01:44:24.497Z,35.20
2023-05-02T01:46:53.375Z,29.90
2023-05-02T01:49:23.961Z,29.20
2023-05-02T01:51:52.833Z,31.00
2023-05-02T01:54:23.665Z,36.20
2023-05-02T01:56:52.347Z,29.30
2023-05-02T01:59:22.949Z,31.20
2023-05-02T02:01:52.094Z,31.00
2023-05-02T02:04:21.427Z,33.50
2023-05-02T02:06:55.798Z,35.50
2023-05-02T02:09:23.968Z,37.40
2023-05-02T02:12:36.872Z,27.50
2023-05-02T02:15:16.780Z,35.10
2023-05-02T02:17:50.519Z,31.30
2023-05-02T02:20:18.995Z,28.40
2023-05-02T02:22:48.128Z,29.30
2023-05-02T02:25:17.795Z,24.10
2023-05-02T02:27:45.669Z,21.80
2023-05-02T02:30:14.069Z,23.00
2023-05-02T02:32:42.423Z,25.50
2023-05-02T02:35:10.946Z,23.20
2023-05-02T02:37:44.378Z,19.20
2023-05-02T02:40:22.192Z,21.00
2023-05-02T02:43:12.901Z,26.20
2023-05-02T02:46:07.785Z,24.70
2023-05-02T02:49:02.886Z,32.60
2023-05-02T02:51:40.062Z,31.40
2023-05-02T02:54:55.128Z,34.60
2023-05-02T02:58:14.095Z,31.80
2023-05-02T03:00:41.849Z,32.00
2023-05-02T03:03:09.969Z,36.00
2023-05-02T03:05:38.554Z,46.50
2023-05-02T03:08:06.730Z,49.60
2023-05-02T03:10:35.411Z,42.20
2023-05-02T03:13:03.285Z,36.20
2023-05-02T03:15:48.843Z,26.50
2023-05-02T03:18:16.841Z,26.20
2023-05-02T03:20:44.807Z,25.90
2023-05-02T03:23:12.615Z,26.60
2023-05-02T03:25:40.375Z,24.20
2023-05-02T03:28:08.155Z,24.20
2023-05-02T03:30:35.879Z,22.90
2023-05-02T03:33:04.865Z,26.10
2023-05-02T03:35:32.664Z,22.40
2023-05-02T03:38:01.193Z,16.90
2023-05-02T03:40:29.014Z,16.20
2023-05-02T03:42:56.883Z,16.40
2023-05-02T03:45:24.697Z,18.80
2023-05-02T03:47:52.554Z,17.00
2023-05-02T03:50:20.571Z,16.80
2023-05-02T03:52:48.415Z,19.20
2023-05-02T03:55:16.322Z,15.20
2023-05-02T03:57:44.229Z,19.20
2023-05-02T04:00:12.521Z,16.70
2023-05-02T04:02:40.465Z,21.70
2023-05-02T04:05:08.753Z,16.30
2023-05-02T04:07:36.665Z,13.40
2023-05-02T04:10:05.027Z,17.50
2023-05-02T04:12:32.902Z,14.60
2023-05-02T04:15:00.791Z,16.80
2023-05-02T04:17:28.840Z,15.20
2023-05-02T04:19:57.023Z,19.20
2023-05-02T04:22:24.849Z,15.60
2023-05-02T04:24:53.860Z,15.60
2023-05-02T04:27:21.703Z,14.40
2023-05-02T04:29:50.692Z,17.00
2023-05-02T04:32:18.567Z,17.80
2023-05-02T04:34:46.478Z,15.90
2023-05-02T04:37:14.330Z,16.30
2023-05-02T04:39:42.087Z,15.80
2023-05-02T04:42:09.878Z,17.20
2023-05-02T04:44:37.704Z,16.60
2023-05-02T04:47:05.531Z,16.30
2023-05-02T04:49:33.336Z,16.50
2023-05-02T04:52:01.133Z,13.40
2023-05-02T04:54:29.330Z,14.60
2023-05-02T04:56:57.231Z,16.20
2023-05-02T04:59:25.030Z,15.50
2023-05-02T05:01:52.848Z,21.80
2023-05-02T05:04:20.702Z,16.60
2023-05-02T05:06:49.377Z,17.10
2023-05-02T05:09:17.209Z,19.50
2023-05-02T05:11:46.275Z,14.70
2023-05-02T05:14:14.227Z,15.70
2023-05-02T05:16:42.257Z,21.70
2023-05-02T05:19:10.375Z,18.00
2023-05-02T05:21:38.252Z,14.80
2023-05-02T05:24:06.604Z,18.20
2023-05-02T05:26:34.396Z,17.60
2023-05-02T05:29:02.252Z,17.90
2023-05-02T05:31:30.129Z,18.00
2023-05-02T05:33:58.096Z,17.40
2023-05-02T05:36:26.568Z,21.20
2023-05-02T05:38:54.321Z,18.40
2023-05-02T05:41:23.149Z,16.60
2023-05-02T05:43:50.914Z,18.70
2023-05-02T05:46:18.683Z,14.80
2023-05-02T05:48:46.481Z,18.60
2023-05-02T05:51:14.270Z,14.80
2023-05-02T05:53:42.048Z,16.80
2023-05-02T05:56:11.837Z,16.50
2023-05-02T05:58:40.203Z,17.50
2023-05-02T06:01:08.338Z,18.40
2023-05-02T06:03:36.482Z,15.10
2023-05-02T06:06:07.428Z,19.10
2023-05-02T06:08:35.661Z,21.80
2023-05-02T06:11:03.759Z,15.30
2023-05-02T06:13:31.533Z,16.10
2023-05-02T06:16:02.846Z,17.10
2023-05-02T06:18:30.808Z,15.00
2023-05-02T06:20:58.725Z,15.50
2023-05-02T06:23:27.394Z,12.30
2023-05-02T06:25:59.509Z,14.80
2023-05-02T06:28:27.803Z,14.40
2023-05-02T06:30:59.707Z,18.10
2023-05-02T06:33:29.161Z,15.00
2023-05-02T06:35:59.111Z,14.10
2023-05-02T06:38:27.723Z,15.10
2023-05-02T06:40:58.246Z,18.90
2023-05-02T06:43:26.246Z,12.20
2023-05-02T06:45:56.390Z,13.20
2023-05-02T06:48:24.801Z,12.60
2023-05-02T06:50:54.151Z,12.00
2023-05-02T06:53:22.135Z,13.20
2023-05-02T06:55:58.135Z,13.20
2023-05-02T06:58:26.328Z,13.70
2023-05-02T07:00:54.135Z,15.50
2023-05-02T07:03:22.105Z,11.90
2023-05-02T07:05:49.880Z,10.60
2023-05-02T07:08:18.778Z,13.00
2023-05-02T07:10:46.540Z,15.20
2023-05-02T07:13:14.336Z,12.30
2023-05-02T07:15:43.168Z,10.00
2023-05-02T07:18:11.462Z,14.50
2023-05-02T07:20:41.489Z,9.80
2023-05-02T07:23:09.461Z,9.40
2023-05-02T07:25:40.126Z,10.10
2023-05-02T07:28:08.754Z,12.20
2023-05-02T07:30:36.714Z,10.20
2023-05-02T07:33:04.708Z,8.40
2023-05-02T07:35:32.601Z,8.50
2023-05-02T07:38:00.639Z,8.20
2023-05-02T07:40:28.679Z,9.40
2023-05-02T07:42:58.333Z,8.60
2023-05-02T07:45:26.223Z,12.50
2023-05-02T07:47:54.149Z,9.50
2023-05-02T07:50:22.935Z,9.40
2023-05-02T07:52:50.856Z,15.80
2023-05-02T07:55:18.921Z,9.20
2023-05-02T07:57:46.826Z,9.80
2023-05-02T08:00:15.495Z,11.70
2023-05-02T08:02:43.503Z,9.10
2023-05-02T08:05:11.586Z,10.20
2023-05-02T08:07:39.732Z,11.60
2023-05-02T08:10:08.723Z,10.90
2023-05-02T08:12:41.373Z,10.80
2023-05-02T08:15:12.226Z,11.20
2023-05-02T08:17:40.153Z,12.20
2023-05-02T08:20:08.662Z,11.20
2023-05-02T08:22:36.606Z,10.10
2023-05-02T08:25:04.946Z,9.10
2023-05-02T08:27:32.774Z,13.10
2023-05-02T08:30:01.215Z,10.40
2023-05-02T08:32:30.137Z,11.50
2023-05-02T08:35:00.246Z,12.70
2023-05-02T08:37:28.061Z,10.80
2023-05-02T08:39:56.306Z,15.40
2023-05-02T08:42:24.924Z,11.40
2023-05-02T08:44:52.938Z,10.80
2023-05-02T08:47:21.867Z,10.10
2023-05-02T08:49:50.296Z,11.90
2023-05-02T08:52:19.862Z,15.20
2023-05-02T08:54:47.822Z,10.60
2023-05-02T08:57:15.785Z,10.20
2023-05-02T08:59:43.762Z,13.20
2023-05-02T09:02:24.419Z,10.80
2023-05-02T09:04:55.925Z,10.20
2023-05-02T09:07:23.765Z,12.90
2023-05-02T09:09:51.869Z,11.50
2023-05-02T09:12:26.863Z,10.50
2023-05-02T09:15:20.608Z,12.20
2023-05-02T09:17:49.369Z,11.30
2023-05-02T09:20:17.869Z,10.70
2023-05-02T09:22:51.089Z,13.00
2023-05-02T09:25:20.728Z,14.60
2023-05-02T09:27:53.314Z,13.00
2023-05-02T09:30:24.059Z,11.90
2023-05-02T09:32:55.648Z,13.90
2023-05-02T09:35:24.226Z,10.40
2023-05-02T09:37:57.150Z,13.40
2023-05-02T09:40:28.357Z,14.80
2023-05-02T09:42:56.302Z,11.30
2023-05-02T09:45:26.168Z,10.50
2023-05-02T09:47:54.310Z,11.60
2023-05-02T09:50:38.609Z,12.80
2023-05-02T09:53:09.921Z,9.80
2023-05-02T09:55:38.076Z,10.40
2023-05-02T09:58:06.650Z,8.20
2023-05-02T10:00:41.143Z,9.50
2023-05-02T10:03:09.727Z,10.00
2023-05-02T10:05:39.634Z,13.40
2023-05-02T10:08:09.597Z,12.00
2023-05-02T10:10:40.622Z,12.00
2023-05-02T10:13:09.265Z,10.60
2023-05-02T10:15:43.248Z,12.80
2023-05-02T10:18:21.693Z,7.80
2023-05-02T10:20:58.769Z,9.20
2023-05-02T10:23:28.638Z,6.40
2023-05-02T10:26:00.152Z,9.70
2023-05-02T10:28:28.574Z,7.10
2023-05-02T10:30:58.632Z,8.20
2023-05-02T10:33:27.013Z,6.00
2023-05-02T10:35:54.888Z,5.80
2023-05-02T10:38:24.898Z,10.30
2023-05-02T10:41:19.173Z,6.90
2023-05-02T10:43:49.262Z,5.70
2023-05-02T10:46:34.314Z,9.10
2023-05-02T10:49:12.771Z,6.50
2023-05-02T10:51:42.949Z,4.40
2023-05-02T10:54:26.003Z,8.00
2023-05-02T10:57:08.970Z,6.30
2023-05-02T10:59:39.019Z,7.10
2023-05-02T11:02:25.422Z,6.00
2023-05-02T11:05:05.143Z,4.80
2023-05-02T11:07:37.567Z,6.40
2023-05-02T11:10:17.239Z,4.90
2023-05-02T11:12:52.873Z,4.40
2023-05-02T11:15:27.728Z,3.90
2023-05-02T11:18:09.249Z,6.40
2023-05-02T11:20:44.004Z,5.40
2023-05-02T11:23:15.651Z,11.80
2023-05-02T11:25:56.884Z,7.20
2023-05-02T11:28:36.841Z,4.90
2023-05-02T11:31:10.967Z,6.00
2023-05-02T11:33:39.075Z,7.00
2023-05-02T11:36:07.194Z,7.00
2023-05-02T11:38:38.720Z,8.30
2023-05-02T11:41:06.692Z,7.10
2023-05-02T11:43:35.069Z,6.60
2023-05-02T11:46:04.334Z,6.70
2023-05-02T11:48:32.365Z,8.80
2023-05-02T11:51:05.655Z,6.70
2023-05-02T11:53:33.946Z,7.90
2023-05-02T11:56:04.957Z,4.90
2023-05-02T11:58:33.919Z,7.20
2023-05-02T12:01:16.100Z,4.50
2023-05-02T12:03:50.072Z,5.10
2023-05-02T12:06:20.034Z,3.40
2023-05-02T12:08:49.385Z,6.90
2023-05-02T12:11:17.511Z,9.30
2023-05-02T12:13:48.414Z,4.00
2023-05-02T12:16:18.033Z,4.70
2023-05-02T12:18:47.524Z,5.30
2023-05-02T12:21:15.533Z,4.20
2023-05-02T12:23:43.739Z,5.30
2023-05-02T12:26:29.300Z,4.60
2023-05-02T12:28:58.962Z,4.40
2023-05-02T12:31:31.601Z,7.60
2023-05-02T12:34:01.107Z,7.10
2023-05-02T12:36:29.539Z,4.40
2023-05-02T12:39:02.701Z,6.20
2023-05-02T12:41:34.742Z,5.60
2023-05-02T12:44:03.591Z,5.70
2023-05-02T12:46:32.105Z,6.80
2023-05-02T12:49:09.424Z,6.30
2023-05-02T12:51:39.156Z,5.50
2023-05-02T12:54:07.502Z,6.00
2023-05-02T12:56:44.674Z,6.00
2023-05-02T12:59:30.444Z,6.60
2023-05-02T13:01:59.527Z,9.90
2023-05-02T13:04:37.566Z,8.00
2023-05-02T13:07:05.511Z,9.90
2023-05-02T13:09:33.510Z,13.30
2023-05-02T13:12:03.815Z,6.30
2023-05-02T13:14:32.281Z,8.40
2023-05-02T13:17:00.498Z,9.30
2023-05-02T13:19:31.447Z,7.90
2023-05-02T13:21:59.686Z,13.50
2023-05-02T13:24:27.769Z,6.20
2023-05-02T13:26:55.716Z,8.60
2023-05-02T13:29:23.574Z,9.00
2023-05-02T13:31:51.626Z,9.70
2023-05-02T13:34:19.554Z,9.20
2023-05-02T13:36:47.539Z,8.90
2023-05-02T13:39:15.342Z,9.60
2023-05-02T13:41:43.382Z,9.60
2023-05-02T13:44:11.203Z,8.60
2023-05-02T13:46:39.588Z,9.90
2023-05-02T13:49:07.492Z,12.60
2023-05-02T13:51:35.578Z,10.40
2023-05-02T13:54:03.484Z,12.50
2023-05-02T13:56:31.391Z,10.70
2023-05-02T13:58:59.382Z,6.80
2023-05-02T14:01:28.326Z,7.90
2023-05-02T14:03:56.393Z,6.50
2023-05-02T14:06:24.795Z,6.50
2023-05-02T14:08:52.752Z,8.40
2023-05-02T14:11:20.797Z,6.70
2023-05-02T14:13:48.779Z,10.00
2023-05-02T14:16:16.754Z,7.80
2023-05-02T14:18:45.676Z,5.60
2023-05-02T14:21:13.457Z,6.10
2023-05-02T14:23:41.280Z,5.10
2023-05-02T14:26:09.388Z,4.50
2023-05-02T14:28:38.469Z,5.00
2023-05-02T14:31:07.940Z,5.40
2023-05-02T14:33:36.145Z,11.90
2023-05-02T14:36:04.727Z,5.20
2023-05-02T14:38:32.919Z,6.60
2023-05-02T14:41:02.849Z,5.50
2023-05-02T14:43:31.046Z,5.40
2023-05-02T14:46:02.749Z,4.20
2023-05-02T14:48:30.759Z,4.50
2023-05-02T14:51:00.723Z,3.80
2023-05-02T14:53:28.487Z,6.30
2023-05-02T14:55:56.294Z,4.40
2023-05-02T14:58:26.790Z,7.50
2023-05-02T15:00:54.792Z,6.80
2023-05-02T15:03:23.068Z,3.80
2023-05-02T15:05:51.150Z,4.90
2023-05-02T15:08:19.661Z,4.50
2023-05-02T15:10:47.925Z,5.30
2023-05-02T15:13:15.957Z,5.40
2023-05-02T15:15:47.334Z,3.80
2023-05-02T15:18:15.515Z,3.10
2023-05-02T15:20:44.650Z,4.40
2023-05-02T15:23:12.518Z,3.50
2023-05-02T15:25:40.672Z,6.50
2023-05-02T15:28:08.804Z,6.00
2023-05-02T15:30:36.761Z,3.30
2023-05-02T15:33:04.830Z,3.20
2023-05-02T15:35:32.731Z,5.90
2023-05-02T15:38:00.739Z,6.60
2023-05-02T15:40:28.711Z,4.20
2023-05-02T15:42:56.619Z,4.10
2023-05-02T15:45:24.657Z,3.60
2023-05-02T15:47:52.819Z,2.50
2023-05-02T15:50:20.754Z,4.60
2023-05-02T15:52:48.600Z,7.60
2023-05-02T15:55:16.899Z,6.00
2023-05-02T15:57:44.913Z,2.30
2023-05-02T16:00:16.863Z,3.50
2023-05-02T16:02:45.078Z,3.30
2023-05-02T16:05:13.275Z,2.10
2023-05-02T16:07:41.120Z,2.40
2023-05-02T16:10:10.080Z,3.10
2023-05-02T16:12:37.982Z,3.30
2023-05-02T16:15:08.365Z,2.70
2023-05-02T16:17:36.223Z,7.40
2023-05-02T16:20:05.786Z,3.00
2023-05-02T16:22:33.772Z,2.70
2023-05-02T16:25:01.660Z,4.20
2023-05-02T16:27:29.661Z,5.00
2023-05-02T16:29:58.995Z,7.90
2023-05-02T16:32:28.159Z,5.00
2023-05-02T16:34:56.122Z,4.60
2023-05-02T16:37:24.008Z,5.60
2023-05-02T16:39:51.989Z,5.10
2023-05-02T16:42:20.001Z,5.00
2023-05-02T16:44:48.019Z,3.60
2023-05-02T16:47:15.947Z,5.00
2023-05-02T16:49:43.769Z,8.10
2023-05-02T16:52:11.730Z,7.50
2023-05-02T16:54:39.625Z,8.00
2023-05-02T16:57:08.251Z,5.40
2023-05-02T16:59:37.174Z,5.60
2023-05-02T17:02:05.071Z,4.50
2023-05-02T17:04:33.023Z,6.90
2023-05-02T17:07:00.782Z,8.90
2023-05-02T17:09:28.560Z,5.30
2023-05-02T17:11:56.442Z,7.30
2023-05-02T17:14:24.385Z,8.20
2023-05-02T17:16:52.352Z,6.10
2023-05-02T17:19:20.297Z,12.90
2023-05-02T17:21:48.351Z,5.30
2023-05-02T17:24:16.220Z,8.70
2023-05-02T17:26:44.168Z,6.90
2023-05-02T17:29:12.490Z,9.00
2023-05-02T17:31:40.723Z,7.40
2023-05-02T17:34:08.920Z,7.60
2023-05-02T17:36:36.925Z,13.40
2023-05-02T17:39:04.729Z,7.60
2023-05-02T17:41:35.997Z,5.50
2023-05-02T17:44:05.101Z,5.00
2023-05-02T17:46:33.632Z,5.50
2023-05-02T17:49:01.642Z,7.60
2023-05-02T17:51:29.535Z,8.90
2023-05-02T17:53:57.349Z,11.10
2023-05-02T17:56:25.220Z,36.10
2023-05-02T17:58:53.831Z,15.60
2023-05-02T18:01:21.879Z,14.00
2023-05-02T18:03:50.072Z,11.70
2023-05-02T18:06:18.819Z,6.90
2023-05-02T18:08:46.980Z,6.20
2023-05-02T18:11:19.552Z,6.40
2023-05-02T18:16:18.148Z,6.20
2023-05-02T18:18:46.242Z,11.30
2023-05-02T18:21:22.159Z,9.50
2023-05-02T18:23:50.094Z,18.40
2023-05-02T18:26:18.238Z,8.80
2023-05-02T18:28:53.466Z,8.50
2023-05-02T18:31:22.406Z,7.90
2023-05-02T18:33:51.670Z,8.90
2023-05-02T18:36:27.252Z,9.20
2023-05-02T18:38:56.297Z,12.00
2023-05-02T18:41:24.356Z,9.80
2023-05-02T18:43:53.242Z,10.30
2023-05-02T18:46:21.300Z,9.80
2023-05-02T18:48:49.135Z,12.00
2023-05-02T18:51:17.291Z,12.40
2023-05-02T18:53:45.225Z,9.80
2023-05-02T18:56:16.812Z,9.80
2023-05-02T18:58:46.125Z,12.80
2023-05-02T19:01:15.912Z,14.30
2023-05-02T19:03:44.288Z,14.00
2023-05-02T19:06:14.068Z,15.30
2023-05-02T19:08:42.366Z,16.00
2023-05-02T19:11:10.209Z,14.60
2023-05-02T19:13:38.791Z,10.30
2023-05-02T19:16:16.400Z,8.80
2023-05-02T19:18:46.805Z,16.10
2023-05-02T19:21:14.738Z,7.20
2023-05-02T19:23:44.706Z,14.10
2023-05-02T19:26:20.614Z,8.90
2023-05-02T19:28:48.560Z,11.20
2023-05-02T19:31:19.514Z,14.80
2023-05-02T19:33:58.064Z,9.90
2023-05-02T19:36:27.482Z,9.30
2023-05-02T19:38:58.096Z,7.80
2023-05-02T19:41:26.325Z,13.90
2023-05-02T19:43:56.562Z,15.00
2023-05-02T19:46:24.344Z,10.20
2023-05-02T19:48:52.425Z,12.00
2023-05-02T19:51:25.896Z,11.30
2023-05-02T19:53:54.540Z,14.40
2023-05-02T19:56:26.844Z,11.80
2023-05-02T19:58:56.876Z,8.70
2023-05-02T20:01:31.473Z,9.40
2023-05-02T20:04:00.316Z,6.90
2023-05-02T20:06:28.602Z,11.80
2023-05-02T20:08:56.495Z,9.10
2023-05-02T20:11:25.974Z,7.90
2023-05-02T20:13:54.539Z,9.10
2023-05-02T20:16:22.500Z,13.20
2023-05-02T20:18:51.309Z,8.10
2023-05-02T20:21:19.086Z,9.30
2023-05-02T20:23:47.161Z,6.90
2023-05-02T20:26:17.252Z,9.20
2023-05-02T20:28:48.276Z,8.70
2023-05-02T20:31:16.360Z,5.00
2023-05-02T20:33:46.049Z,11.70
2023-05-02T20:36:15.045Z,17.30
2023-05-02T20:38:44.734Z,7.90
2023-05-02T20:41:15.371Z,10.70
2023-05-02T20:43:47.237Z,12.70
2023-05-02T20:46:19.096Z,12.30
2023-05-02T20:48:47.721Z,9.40
2023-05-02T20:51:16.147Z,9.10
2023-05-02T20:53:44.768Z,10.40
2023-05-02T20:56:13.243Z,8.60
2023-05-02T20:58:41.276Z,10.60
2023-05-02T21:01:09.591Z,11.20
2023-05-02T21:03:40.706Z,9.10
2023-05-02T21:06:08.758Z,15.10
2023-05-02T21:08:36.880Z,12.70
2023-05-02T21:11:15.068Z,12.50
2023-05-02T21:13:43.714Z,11.30
2023-05-02T21:16:19.485Z,12.20
2023-05-02T21:18:47.960Z,10.20
2023-05-02T21:21:15.974Z,13.30
2023-05-02T21:23:43.928Z,12.60
2023-05-02T21:26:11.724Z,9.20
2023-05-02T21:28:40.052Z,9.90
2023-05-02T21:31:08.041Z,9.00
2023-05-02T21:33:36.028Z,12.60
2023-05-02T21:36:04.262Z,10.70
2023-05-02T21:38:32.060Z,14.30
2023-05-02T21:41:04.742Z,13.10
2023-05-02T21:43:39.685Z,12.40
2023-05-02T21:46:07.621Z,11.40
2023-05-02T21:48:35.662Z,14.70
2023-05-02T21:51:08.497Z,14.00
2023-05-02T21:53:36.431Z,14.30
2023-05-02T21:56:06.708Z,14.30
2023-05-02T21:58:34.644Z,13.80
2023-05-02T22:01:03.222Z,14.60
2023-05-02T22:03:31.228Z,8.90
2023-05-02T22:06:05.019Z,9.50
2023-05-02T22:08:33.335Z,13.40
2023-05-02T22:11:09.569Z,12.80
2023-05-02T22:13:37.548Z,12.70
2023-05-02T22:16:06.160Z,11.50
2023-05-02T22:18:34.049Z,12.60
2023-05-02T22:21:02.198Z,12.00
2023-05-02T22:23:31.151Z,9.40
2023-05-02T22:25:59.124Z,12.40
2023-05-02T22:28:27.064Z,10.30
2023-05-02T22:30:54.977Z,11.10
2023-05-02T22:33:23.545Z,9.80
2023-05-02T22:35:51.436Z,12.30
2023-05-02T22:38:19.847Z,10.80
2023-05-02T22:40:47.787Z,11.90
2023-05-02T22:43:16.401Z,13.20
2023-05-02T22:45:44.156Z,12.40
2023-05-02T22:48:12.120Z,10.10
2023-05-02T22:50:40.177Z,10.00
2023-05-02T22:53:09.521Z,10.30
2023-05-02T22:55:38.875Z,8.60
2023-05-02T22:58:06.684Z,14.40
2023-05-02T23:00:34.562Z,14.20
2023-05-02T23:03:03.121Z,10.30
2023-05-02T23:05:31.034Z,14.50
2023-05-02T23:07:58.819Z,12.00
2023-05-02T23:10:26.862Z,14.70
2023-05-02T23:12:54.696Z,15.80
2023-05-02T23:15:22.499Z,8.40
2023-05-02T23:17:50.431Z,15.10
2023-05-02T23:20:20.403Z,7.30
2023-05-02T23:22:48.296Z,11.60
2023-05-02T23:25:16.066Z,12.50
2023-05-02T23:27:43.905Z,8.70
2023-05-02T23:30:12.019Z,12.60
2023-05-02T23:32:40.192Z,10.60
2023-05-02T23:35:08.722Z,11.60
2023-05-02T23:37:36.967Z,11.40
2023-05-02T23:40:09.275Z,12.40
2023-05-02T23:42:40.465Z,8.40
2023-05-02T23:45:09.562Z,9.60
2023-05-02T23:47:38.287Z,10.00
2023-05-02T23:50:07.342Z,11.10
2023-05-02T23:52:35.394Z,18.00
2023-05-02T23:55:03.369Z,14.40
2023-05-02T23:57:31.201Z,13.20
2023-05-02T23:59:58.963Z,13.90
